createdAt,value
2023-08-12T00:01:45.985Z,101466.28
2023-08-12T00:04:49.114Z,101467.41
2023-08-12T00:07:52.466Z,101477.41
2023-08-12T00:10:55.478Z,101481.53
2023-08-12T00:14:00.431Z,101480.72
2023-08-12T00:17:03.703Z,101478.34
2023-08-12T00:20:12.273Z,101488.72
2023-08-12T00:23:15.856Z,101475.41
2023-08-12T00:26:19.029Z,101478.72
2023-08-12T00:29:23.822Z,101470.38
2023-08-12T00:32:27.031Z,101467.63
2023-08-12T00:35:30.144Z,101465.13
2023-08-12T00:38:34.144Z,101464.59
2023-08-12T00:41:37.235Z,101461.84
2023-08-12T00:44:41.617Z,101454.59
2023-08-12T00:47:46.619Z,101445.16
2023-08-12T00:50:49.909Z,101451.56
2023-08-12T00:53:53.326Z,101450.72
2023-08-12T00:56:56.564Z,101446.13
2023-08-12T01:00:02.371Z,101426.63
2023-08-12T01:03:07.598Z,101427.44
2023-08-12T01:06:10.880Z,101412.59
2023-08-12T01:09:14.271Z,101416.31
2023-08-12T01:12:26.843Z,101417.97
2023-08-12T01:15:31.794Z,101410.78
2023-08-12T01:18:35.342Z,101408.00
2023-08-12T01:21:43.967Z,101406.63
2023-08-12T01:24:48.384Z,101404.38
2023-08-12T01:27:51.458Z,101404.25
2023-08-12T01:31:00.488Z,101407.13
2023-08-12T01:34:14.720Z,101407.13
2023-08-12T01:37:25.814Z,101403.22
2023-08-12T01:40:31.615Z,101408.91
2023-08-12T01:43:35.444Z,101398.50
2023-08-12T01:46:38.850Z,101399.19
2023-08-12T01:49:42.072Z,101386.00
2023-08-12T01:52:45.514Z,101382.16
2023-08-12T01:55:52.584Z,101379.38
2023-08-12T01:58:56.229Z,101382.28
2023-08-12T02:01:59.378Z,101377.44
2023-08-12T02:05:02.574Z,101374.06
2023-08-12T02:08:08.405Z,101371.59
2023-08-12T02:11:13.322Z,101374.03
2023-08-12T02:14:16.583Z,101375.84
2023-08-12T02:17:19.706Z,101349.38
2023-08-12T02:20:22.991Z,101363.50
2023-08-12T02:23:26.235Z,101354.66
2023-08-12T02:26:30.653Z,101343.56
2023-08-12T02:29:35.084Z,101344.78
2023-08-12T02:32:38.166Z,101351.28
2023-08-12T02:35:43.822Z,101337.44
2023-08-12T02:38:47.019Z,101328.31
2023-08-12T02:41:54.570Z,101331.09
2023-08-12T02:44:57.637Z,101330.25
2023-08-12T02:48:00.760Z,101323.91
2023-08-12T02:51:04.396Z,101330.28
2023-08-12T02:54:07.631Z,101322.75
2023-08-12T02:57:12.194Z,101326.38
2023-08-12T03:00:16.565Z,101325.25
2023-08-12T03:03:19.634Z,101314.72
2023-08-12T03:06:23.555Z,101309.72
2023-08-12T03:09:26.740Z,101307.34
2023-08-12T03:12:32.191Z,101306.09
2023-08-12T03:15:35.384Z,101308.59
2023-08-12T03:18:38.544Z,101309.97
2023-08-12T03:21:42.475Z,101306.09
2023-08-12T03:24:45.684Z,101304.31
2023-08-12T03:27:50.159Z,101304.69
2023-08-12T03:30:53.881Z,101300.00
2023-08-12T03:33:59.791Z,101308.19
2023-08-12T03:37:05.670Z,101302.22
2023-08-12T03:40:11.363Z,101296.09
2023-08-12T03:43:17.254Z,101286.38
2023-08-12T03:46:21.954Z,101276.53
2023-08-12T03:49:25.278Z,101281.69
2023-08-12T03:52:30.127Z,101283.63
2023-08-12T03:55:33.883Z,101291.38
2023-08-12T03:58:38.792Z,101279.44
2023-08-12T04:01:41.932Z,101276.13
2023-08-12T04:04:47.695Z,101279.69
2023-08-12T04:07:50.720Z,101273.31
2023-08-12T04:10:54.105Z,101268.56
2023-08-12T04:13:58.910Z,101265.41
2023-08-12T04:17:02.523Z,101262.78
2023-08-12T04:20:08.006Z,101266.13
2023-08-12T04:23:12.747Z,101261.66
2023-08-12T04:26:15.806Z,101261.25
2023-08-12T04:29:20.252Z,101260.28
2023-08-12T04:32:24.157Z,101257.69
2023-08-12T04:35:27.294Z,101256.19
2023-08-12T04:38:32.149Z,101250.66
2023-08-12T04:41:37.133Z,101247.91
2023-08-12T04:44:44.812Z,101257.34
2023-08-12T04:47:48.069Z,101257.34
2023-08-12T04:50:55.585Z,101260.13
2023-08-12T04:53:58.888Z,101258.16
2023-08-12T04:57:02.107Z,101261.78
2023-08-12T05:00:09.336Z,101266.22
2023-08-12T05:03:12.651Z,101258.59
2023-08-12T05:06:15.883Z,101263.31
2023-08-12T05:09:19.092Z,101269.00
2023-08-12T05:12:22.508Z,101261.28
2023-08-12T05:15:27.451Z,101258.91
2023-08-12T05:18:32.093Z,101256.78
2023-08-12T05:21:35.174Z,101258.16
2023-08-12T05:24:38.474Z,101253.13
2023-08-12T05:27:42.644Z,101250.41
2023-08-12T05:30:47.972Z,101254.38
2023-08-12T05:33:51.011Z,101256.91
2023-08-12T05:36:54.068Z,101249.44
2023-08-12T05:39:57.289Z,101249.63
2023-08-12T05:43:00.296Z,101246.63
2023-08-12T05:46:04.645Z,101250.41
2023-08-12T05:49:07.788Z,101252.50
2023-08-12T05:52:13.265Z,101262.81
2023-08-12T05:55:16.885Z,101252.50
2023-08-12T05:58:23.390Z,101259.09
2023-08-12T06:01:28.090Z,101251.06
2023-08-12T06:04:31.358Z,101251.41
2023-08-12T06:07:34.514Z,101253.78
2023-08-12T06:10:39.717Z,101256.94
2023-08-12T06:13:45.682Z,101254.47
2023-08-12T06:16:50.090Z,101258.53
2023-08-12T06:19:53.144Z,101255.66
2023-08-12T06:22:56.477Z,101251.53
2023-08-12T06:25:59.511Z,101263.66
2023-08-12T06:29:05.963Z,101252.38
2023-08-12T06:32:14.188Z,101258.72
2023-08-12T06:35:18.183Z,101256.13
2023-08-12T06:38:21.242Z,101258.81
2023-08-12T06:41:24.472Z,101256.81
2023-08-12T06:44:28.620Z,101259.66
2023-08-12T06:47:33.293Z,101258.50
2023-08-12T06:50:36.835Z,101254.72
2023-08-12T06:53:41.013Z,101252.94
2023-08-12T06:56:44.112Z,101250.94
2023-08-12T06:59:47.270Z,101246.16
2023-08-12T07:02:51.715Z,101251.28
2023-08-12T07:05:54.898Z,101254.94
2023-08-12T07:08:58.312Z,101253.09
2023-08-12T07:12:02.791Z,101254.75
2023-08-12T07:15:07.034Z,101250.13
2023-08-12T07:18:11.457Z,101239.84
2023-08-12T07:21:14.480Z,101236.38
2023-08-12T07:24:17.856Z,101238.69
2023-08-12T07:27:20.997Z,101242.97
2023-08-12T07:30:24.120Z,101236.81
2023-08-12T07:33:28.555Z,101243.63
2023-08-12T07:36:31.606Z,101246.59
2023-08-12T07:39:34.769Z,101238.28
2023-08-12T07:42:37.800Z,101231.25
2023-08-12T07:45:41.047Z,101237.19
2023-08-12T07:48:45.384Z,101242.38
2023-08-12T07:51:48.712Z,101244.03
2023-08-12T07:54:52.417Z,101244.16
2023-08-12T07:57:55.764Z,101229.16
2023-08-12T08:00:58.861Z,101224.97
2023-08-12T08:04:03.247Z,101226.06
2023-08-12T08:07:06.424Z,101222.06
2023-08-12T08:10:10.785Z,101225.16
2023-08-12T08:13:13.929Z,101218.41
2023-08-12T08:16:17.200Z,101224.34
2023-08-12T08:19:21.789Z,101221.34
2023-08-12T08:22:25.038Z,101226.28
2023-08-12T08:25:28.167Z,101223.84
2023-08-12T08:28:31.216Z,101227.06
2023-08-12T08:31:34.462Z,101218.06
2023-08-12T08:34:39.915Z,101216.94
2023-08-12T08:37:44.639Z,101214.94
2023-08-12T08:40:47.916Z,101219.91
2023-08-12T08:43:51.576Z,101223.28
2023-08-12T08:47:00.608Z,101222.78
2023-08-12T08:50:06.867Z,101218.91
2023-08-12T08:53:10.066Z,101223.41
2023-08-12T08:56:15.004Z,101230.72
2023-08-12T08:59:19.013Z,101223.91
2023-08-12T09:02:23.073Z,101221.16
2023-08-12T09:05:28.548Z,101211.81
2023-08-12T09:08:33.650Z,101213.28
2023-08-12T09:11:37.185Z,101207.38
2023-08-12T09:14:40.284Z,101201.19
2023-08-12T09:17:45.776Z,101193.84
2023-08-12T09:20:50.142Z,101192.19
2023-08-12T09:23:53.353Z,101199.09
2023-08-12T09:26:57.065Z,101204.81
2023-08-12T09:30:00.436Z,101216.28
2023-08-12T09:33:08.172Z,101206.63
2023-08-12T09:36:12.814Z,101214.06
2023-08-12T09:39:15.853Z,101213.25
2023-08-12T09:42:20.148Z,101207.53
2023-08-12T09:45:26.434Z,101198.84
2023-08-12T09:48:29.900Z,101198.53
2023-08-12T09:51:41.884Z,101198.91
2023-08-12T09:54:45.815Z,101198.09
2023-08-12T09:57:53.835Z,101191.94
2023-08-12T10:00:57.199Z,101191.78
2023-08-12T10:04:00.280Z,101194.59
2023-08-12T10:07:05.859Z,101204.41
2023-08-12T10:10:12.152Z,101193.47
2023-08-12T10:13:15.914Z,101205.84
2023-08-12T10:16:20.003Z,101195.19
2023-08-12T10:19:27.190Z,101183.44
2023-08-12T10:22:32.894Z,101181.94
2023-08-12T10:25:37.207Z,101178.69
2023-08-12T10:28:40.256Z,101161.81
2023-08-12T10:31:45.723Z,101163.97
2023-08-12T10:34:57.621Z,101162.66
2023-08-12T10:38:02.095Z,101163.13
2023-08-12T10:41:22.006Z,101157.22
2023-08-12T10:44:29.576Z,101152.28
2023-08-12T10:47:33.498Z,101153.72
2023-08-12T10:50:37.060Z,101145.41
2023-08-12T10:53:41.487Z,101132.00
2023-08-12T10:57:09.142Z,101148.91
2023-08-12T11:00:18.470Z,101154.72
2023-08-12T11:03:21.719Z,101161.78
2023-08-12T11:06:24.718Z,101157.63
2023-08-12T11:09:30.057Z,101147.41
2023-08-12T11:12:35.845Z,101145.78
2023-08-12T11:15:43.541Z,101153.81
2023-08-12T11:18:46.868Z,101152.78
2023-08-12T11:21:50.294Z,101145.91
2023-08-12T11:24:55.274Z,101146.38
2023-08-12T11:27:58.936Z,101139.38
2023-08-12T11:31:04.758Z,101142.84
2023-08-12T11:34:13.130Z,101145.41
2023-08-12T11:37:17.145Z,101146.97
2023-08-12T11:40:23.588Z,101145.28
2023-08-12T11:43:28.274Z,101148.28
2023-08-12T11:46:35.069Z,101150.16
2023-08-12T11:49:38.526Z,101157.94
2023-08-12T11:52:42.511Z,101159.72
2023-08-12T11:55:47.072Z,101157.09
2023-08-12T11:58:53.653Z,101158.72
2023-08-12T12:01:57.336Z,101155.25
2023-08-12T12:05:00.436Z,101154.78
2023-08-12T12:08:06.273Z,101152.38
2023-08-12T12:11:11.131Z,101141.97
2023-08-12T12:14:16.892Z,101153.03
2023-08-12T12:17:19.982Z,101152.44
2023-08-12T12:20:23.696Z,101159.72
2023-08-12T12:23:35.436Z,101163.28
2023-08-12T12:26:40.096Z,101164.59
2023-08-12T12:29:43.462Z,101156.94
2023-08-12T12:32:47.028Z,101155.22
2023-08-12T12:35:57.736Z,101134.47
2023-08-12T12:39:01.109Z,101121.09
2023-08-12T12:42:05.690Z,101100.47
2023-08-12T12:45:11.003Z,101085.72
2023-08-12T12:48:16.888Z,101064.19
2023-08-12T12:51:19.925Z,101068.81
2023-08-12T12:54:23.208Z,101050.00
2023-08-12T12:57:27.787Z,101031.72
2023-08-12T13:00:33.592Z,101035.53
2023-08-12T13:03:39.007Z,101033.78
2023-08-12T13:06:45.173Z,101037.75
2023-08-12T13:09:48.238Z,101046.81
2023-08-12T13:12:52.584Z,101039.44
2023-08-12T13:15:55.610Z,101039.03
2023-08-12T13:19:02.566Z,101025.56
2023-08-12T13:22:10.344Z,101028.69
2023-08-12T13:25:13.727Z,101032.25
2023-08-12T13:28:18.642Z,101030.88
2023-08-12T13:31:21.786Z,101024.94
2023-08-12T13:34:31.137Z,101024.53
2023-08-12T13:37:34.794Z,101020.00
2023-08-12T13:40:37.823Z,101013.75
2023-08-12T13:43:53.762Z,101013.34
2023-08-12T13:46:56.862Z,101015.03
2023-08-12T13:49:59.899Z,101009.31
2023-08-12T13:53:02.927Z,101010.13
2023-08-12T13:56:08.090Z,101010.03
2023-08-12T13:59:12.500Z,100999.22
2023-08-12T14:02:15.732Z,101000.09
2023-08-12T14:05:20.934Z,101005.44
2023-08-12T14:08:24.085Z,101005.06
2023-08-12T14:11:27.340Z,101001.72
2023-08-12T14:14:32.630Z,101005.75
2023-08-12T14:17:35.827Z,101010.00
2023-08-12T14:20:39.047Z,101001.41
2023-08-12T14:23:44.111Z,100998.72
2023-08-12T14:26:47.426Z,100992.19
2023-08-12T14:29:51.771Z,100997.09
2023-08-12T14:32:54.926Z,100990.94
2023-08-12T14:36:00.011Z,100989.03
2023-08-12T14:39:03.191Z,100980.44
2023-08-12T14:42:11.054Z,100984.28
2023-08-12T14:45:15.449Z,100981.09
2023-08-12T14:48:22.237Z,100980.25
2023-08-12T14:51:30.538Z,100971.31
2023-08-12T14:54:33.650Z,100971.44
2023-08-12T14:57:36.864Z,100968.44
2023-08-12T15:00:41.244Z,100964.88
2023-08-12T15:03:44.871Z,100956.34
2023-08-12T15:06:47.978Z,100954.75
2023-08-12T15:09:53.043Z,100947.00
2023-08-12T15:12:56.141Z,100941.31
2023-08-12T15:16:00.676Z,100933.22
2023-08-12T15:19:04.558Z,100934.97
2023-08-12T15:22:07.674Z,100938.81
2023-08-12T15:25:13.736Z,100936.16
2023-08-12T15:28:17.089Z,100940.22
2023-08-12T15:31:22.506Z,100935.28
2023-08-12T15:34:26.103Z,100930.09
2023-08-12T15:37:32.090Z,100930.91
2023-08-12T15:40:35.120Z,100927.00
2023-08-12T15:43:38.259Z,100937.88
2023-08-12T15:46:43.314Z,100935.53
2023-08-12T15:49:46.358Z,100928.22
2023-08-12T15:52:49.396Z,100921.63
2023-08-12T15:55:52.426Z,100918.84
2023-08-12T15:58:55.589Z,100920.50
2023-08-12T16:02:03.269Z,100921.38
2023-08-12T16:05:09.514Z,100913.09
2023-08-12T16:08:15.978Z,100913.84
2023-08-12T16:11:23.504Z,100906.84
2023-08-12T16:14:27.804Z,100911.16
2023-08-12T16:17:32.923Z,100906.09
2023-08-12T16:20:38.497Z,100895.81
2023-08-12T16:23:41.867Z,100885.75
2023-08-12T16:26:45.361Z,100891.69
2023-08-12T16:29:48.518Z,100891.25
2023-08-12T16:32:53.013Z,100876.00
2023-08-12T16:35:56.081Z,100875.75
2023-08-12T16:44:47.132Z,100868.09
2023-08-12T16:47:54.505Z,100864.91
2023-08-12T16:50:57.851Z,100856.88
2023-08-12T16:54:01.517Z,100851.53
2023-08-12T16:57:04.808Z,100847.28
2023-08-12T17:00:19.224Z,100847.09
2023-08-12T17:03:25.853Z,100847.38
2023-08-12T17:06:35.149Z,100851.94
2023-08-12T17:09:38.660Z,100849.25
2023-08-12T17:12:41.867Z,100865.31
2023-08-12T17:16:01.138Z,100870.72
2023-08-12T17:20:01.329Z,100882.00
2023-08-12T17:23:05.417Z,100874.84
2023-08-12T17:26:08.658Z,100863.41
2023-08-12T17:29:11.769Z,100866.25
2023-08-12T17:32:20.673Z,100869.13
2023-08-12T17:35:25.056Z,100865.81
2023-08-12T17:38:29.321Z,100865.03
2023-08-12T17:41:35.277Z,100864.00
2023-08-12T17:44:38.959Z,100861.75
2023-08-12T17:48:54.767Z,100867.28
2023-08-12T18:08:04.586Z,100868.66
2023-08-12T18:14:52.365Z,100879.88
2023-08-12T18:17:55.553Z,100889.50
2023-08-12T18:20:58.713Z,100896.28
2023-08-12T18:24:01.795Z,100914.25
2023-08-12T18:27:51.635Z,100922.59
2023-08-12T19:36:18.820Z,100887.81
2023-08-12T19:39:43.862Z,100891.31
2023-08-12T19:42:55.341Z,100894.59
2023-08-12T19:45:59.291Z,100891.94
2023-08-12T19:49:03.863Z,100887.06
2023-08-12T19:52:10.586Z,100889.09
2023-08-12T19:55:15.871Z,100886.72
2023-08-12T19:58:18.978Z,100882.97
2023-08-12T20:01:22.155Z,100885.44
2023-08-12T20:04:25.545Z,100891.75
2023-08-12T20:07:30.178Z,100888.28
2023-08-12T20:10:36.270Z,100885.63
2023-08-12T20:13:39.428Z,100881.47
2023-08-12T20:16:42.699Z,100885.63
2023-08-12T20:19:48.666Z,100885.97
2023-08-12T20:23:05.614Z,100892.81
2023-08-12T20:26:10.734Z,100892.06
2023-08-12T20:29:13.865Z,100896.31
2023-08-12T20:32:17.293Z,100902.44
2023-08-12T20:35:25.372Z,100904.44
2023-08-12T20:38:32.309Z,100904.16
2023-08-12T20:41:35.455Z,100896.25
2023-08-12T20:44:38.547Z,100900.25
2023-08-12T20:47:46.070Z,100913.28
2023-08-12T21:04:20.482Z,100923.66
2023-08-12T21:13:54.578Z,100935.78
2023-08-12T21:17:00.212Z,100930.50
2023-08-12T21:20:05.222Z,100928.53
2023-08-12T21:23:10.259Z,100934.84
2023-08-12T21:26:13.950Z,100930.06
2023-08-12T21:29:18.782Z,100931.94
2023-08-12T21:32:22.895Z,100936.94
2023-08-12T22:03:32.534Z,100963.00
2023-08-12T22:07:20.238Z,100953.25
2023-08-12T22:10:31.875Z,100953.41
2023-08-12T22:13:36.152Z,100962.50
2023-08-12T22:16:40.255Z,100962.84
2023-08-12T22:20:41.360Z,100961.53
2023-08-12T22:24:39.076Z,100962.38
2023-08-12T22:27:51.756Z,100964.84
2023-08-12T22:31:17.169Z,100953.22
2023-08-12T22:35:36.136Z,100958.81
2023-08-12T22:38:54.496Z,100965.91
2023-08-12T22:42:23.468Z,100968.03
2023-08-12T22:45:32.572Z,100975.66
2023-08-12T22:49:10.210Z,100970.69
2023-08-12T22:53:00.753Z,100977.63
2023-08-12T22:56:14.916Z,100979.59
2023-08-12T23:01:09.112Z,100988.22
2023-08-12T23:05:01.465Z,100989.19
2023-08-12T23:08:26.181Z,100990.88
2023-08-12T23:11:40.567Z,100992.53
2023-08-12T23:14:52.965Z,100990.69
2023-08-12T23:18:04.001Z,101003.13
2023-08-12T23:21:51.726Z,101005.09
2023-08-12T23:29:05.678Z,101013.41
2023-08-12T23:33:28.731Z,101020.72
